Time;durP1;ratioP1;P1;durP2;ratioP2;P2;SDS_P1;SDS_P2;PMS_P1;PMS_P2;Temp;Humidity;BMP_temperature;BMP_pressure;BME280_temperature;BME280_humidity;BME280_pressure;Samples;Min_cycle;Max_cycle;Signal;HPM_P1;HPM_P2
2023/06/26 00:04:31;;;;;;;30.20;8.65;;;;;;;;;;10313660;28;20072;-59
2023/06/26 00:09:29;;;;;;;34.38;10.05;;;;;;;;;;10313773;28;20079;-59
2023/06/26 00:14:27;;;;;;;40.30;9.93;;;;;;;;;;10312887;28;20076;-59
2023/06/26 00:19:26;;;;;;;37.33;10.52;;;;;;;;;;10310658;28;20067;-60
2023/06/26 00:24:26;;;;;;;29.83;9.75;;;;;;;;;;10312399;28;20569;-58
2023/06/26 00:29:25;;;;;;;37.78;9.98;;;;;;;;;;10315428;28;20068;-59
2023/06/26 00:34:23;;;;;;;28.92;8.40;;;;;;;;;;10311886;28;20528;-59
2023/06/26 00:39:21;;;;;;;30.45;9.68;;;;;;;;;;10314039;28;20060;-58
2023/06/26 00:44:21;;;;;;;21.77;8.73;;;;;;;;;;10310288;28;20064;-59
2023/06/26 00:49:19;;;;;;;27.17;8.70;;;;;;;;;;10305175;28;20080;-59
2023/06/26 00:54:20;;;;;;;15.85;7.82;;;;;;;;;;10311987;28;20083;-58
2023/06/26 00:59:20;;;;;;;22.83;8.95;;;;;;;;;;10309926;28;20072;-59
2023/06/26 01:04:19;;;;;;;19.48;7.70;;;;;;;;;;10313581;28;20080;-60
2023/06/26 01:09:18;;;;;;;17.55;8.27;;;;;;;;;;10308450;28;20412;-60
2023/06/26 01:14:16;;;;;;;17.83;8.75;;;;;;;;;;10311827;28;20076;-59
2023/06/26 01:19:24;;;;;;;19.88;8.52;;;;;;;;;;10309544;28;20084;-59
2023/06/26 01:24:27;;;;;;;25.75;9.38;;;;;;;;;;10312338;28;20080;-57
2023/06/26 01:29:27;;;;;;;20.80;9.07;;;;;;;;;;10309962;28;20850;-59
2023/06/26 01:34:25;;;;;;;19.73;8.23;;;;;;;;;;10310696;28;20457;-58
2023/06/26 01:39:23;;;;;;;15.55;7.95;;;;;;;;;;10306343;28;20069;-59
2023/06/26 01:44:26;;;;;;;17.92;8.60;;;;;;;;;;10310342;28;20088;-59
2023/06/26 01:49:30;;;;;;;16.83;7.93;;;;;;;;;;10308587;28;20072;-59
2023/06/26 01:54:31;;;;;;;22.05;8.50;;;;;;;;;;10308988;28;20075;-59
2023/06/26 01:59:30;;;;;;;25.42;9.18;;;;;;;;;;10310140;28;20466;-59
2023/06/26 02:04:29;;;;;;;21.08;9.30;;;;;;;;;;10307793;28;20533;-59
2023/06/26 02:09:28;;;;;;;28.65;9.38;;;;;;;;;;10307005;28;20075;-59
2023/06/26 02:14:27;;;;;;;33.10;10.32;;;;;;;;;;10311213;28;20513;-59
2023/06/26 02:19:25;;;;;;;32.78;9.25;;;;;;;;;;10308589;28;20068;-59
2023/06/26 02:24:24;;;;;;;36.72;9.02;;;;;;;;;;10308640;28;20521;-58
2023/06/26 02:29:23;;;;;;;32.53;8.88;;;;;;;;;;10310192;28;20487;-59
2023/06/26 02:34:21;;;;;;;36.15;9.40;;;;;;;;;;10308803;28;20521;-59
2023/06/26 02:39:19;;;;;;;28.75;7.85;;;;;;;;;;10308164;28;20087;-59
2023/06/26 02:44:18;;;;;;;38.17;10.20;;;;;;;;;;10306493;28;20057;-58
2023/06/26 02:49:17;;;;;;;32.67;9.52;;;;;;;;;;10307526;28;20532;-60
2023/06/26 02:54:18;;;;;;;39.78;11.38;;;;;;;;;;10307126;28;20657;-60
2023/06/26 02:59:21;;;;;;;25.05;9.57;;;;;;;;;;10301673;28;20541;-59
2023/06/26 03:04:21;;;;;;;34.55;9.57;;;;;;;;;;10307071;28;20088;-59
2023/06/26 03:09:19;;;;;;;27.50;8.75;;;;;;;;;;10308978;28;20068;-60
2023/06/26 03:14:18;;;;;;;39.25;9.25;;;;;;;;;;10300573;28;20079;-59
2023/06/26 03:19:18;;;;;;;26.15;9.05;;;;;;;;;;10308218;28;20088;-60
2023/06/26 03:24:39;;;;;;;34.03;10.18;;;;;;;;;;10303389;28;20075;-60
2023/06/26 03:29:37;;;;;;;33.42;9.20;;;;;;;;;;10308320;28;20071;-57
2023/06/26 03:34:38;;;;;;;27.45;10.30;;;;;;;;;;10305958;28;20068;-59
2023/06/26 03:39:37;;;;;;;21.15;9.35;;;;;;;;;;10328865;28;20091;-59
2023/06/26 03:44:35;;;;;;;24.08;10.90;;;;;;;;;;10315406;28;20659;-59
2023/06/26 03:49:33;;;;;;;13.75;8.98;;;;;;;;;;10315730;28;20505;-59
2023/06/26 03:54:33;;;;;;;21.05;10.43;;;;;;;;;;10311367;28;20084;-59
2023/06/26 03:59:32;;;;;;;25.27;10.30;;;;;;;;;;10313495;28;20080;-59
2023/06/26 04:04:30;;;;;;;18.10;9.63;;;;;;;;;;10310550;28;20056;-60
2023/06/26 04:09:29;;;;;;;15.80;10.18;;;;;;;;;;10312776;28;20506;-60
2023/06/26 04:14:29;;;;;;;15.05;9.73;;;;;;;;;;10304726;28;20526;-59
2023/06/26 04:19:27;;;;;;;20.25;9.52;;;;;;;;;;10312194;28;20470;-59
2023/06/26 04:24:26;;;;;;;24.00;8.63;;;;;;;;;;10313275;28;20150;-59
2023/06/26 04:29:25;;;;;;;27.58;10.70;;;;;;;;;;10311735;28;20073;-59
2023/06/26 04:34:24;;;;;;;24.92;10.73;;;;;;;;;;10310182;28;20072;-59
2023/06/26 04:39:23;;;;;;;21.23;9.55;;;;;;;;;;10313102;28;20080;-59
2023/06/26 04:44:21;;;;;;;18.10;10.35;;;;;;;;;;10310466;28;20079;-59
2023/06/26 04:49:19;;;;;;;24.38;10.82;;;;;;;;;;10309164;28;20084;-59
2023/06/26 04:54:20;;;;;;;27.52;11.57;;;;;;;;;;10311739;28;20534;-58
2023/06/26 04:59:18;;;;;;;34.40;16.13;;;;;;;;;;10312120;28;20072;-59
2023/06/26 05:04:17;;;;;;;35.25;20.52;;;;;;;;;;10309743;28;20479;-59
2023/06/26 05:09:15;;;;;;;32.42;11.82;;;;;;;;;;10312798;28;20075;-59
2023/06/26 05:14:15;;;;;;;27.70;10.70;;;;;;;;;;10311280;28;20079;-59
2023/06/26 05:19:13;;;;;;;25.55;11.07;;;;;;;;;;10308913;28;20068;-59
2023/06/26 05:24:13;;;;;;;28.58;10.52;;;;;;;;;;10312814;28;20075;-59
2023/06/26 05:29:12;;;;;;;26.08;9.90;;;;;;;;;;10307927;28;20564;-59
2023/06/26 05:34:12;;;;;;;26.08;10.77;;;;;;;;;;10312418;28;20075;-60
2023/06/26 05:39:11;;;;;;;25.02;10.82;;;;;;;;;;10308304;28;20073;-60
2023/06/26 05:44:09;;;;;;;22.15;10.10;;;;;;;;;;10310616;28;20091;-60
2023/06/26 05:49:07;;;;;;;19.60;10.57;;;;;;;;;;10306340;28;20073;-60
2023/06/26 05:54:07;;;;;;;25.70;11.07;;;;;;;;;;10310188;28;20079;-59
2023/06/26 05:59:06;;;;;;;24.55;10.98;;;;;;;;;;10308475;28;20075;-59
2023/06/26 06:04:04;;;;;;;22.65;12.80;;;;;;;;;;10307691;28;20087;-59
2023/06/26 06:09:03;;;;;;;30.98;12.13;;;;;;;;;;10308521;28;20083;-58
2023/06/26 06:14:02;;;;;;;29.63;12.98;;;;;;;;;;10308796;28;20481;-58
2023/06/26 06:19:03;;;;;;;29.08;12.40;;;;;;;;;;10299281;28;20064;-56
2023/06/26 06:24:01;;;;;;;24.23;11.23;;;;;;;;;;10301979;28;20072;-58
2023/06/26 06:29:00;;;;;;;21.05;9.98;;;;;;;;;;10302219;28;20158;-59
2023/06/26 06:33:59;;;;;;;23.92;11.30;;;;;;;;;;10299883;28;20068;-59
2023/06/26 06:38:58;;;;;;;21.92;10.18;;;;;;;;;;10302893;28;20548;-58
2023/06/26 06:43:56;;;;;;;20.23;11.18;;;;;;;;;;10310992;28;20086;-59
2023/06/26 06:48:54;;;;;;;24.02;11.30;;;;;;;;;;10308550;28;20079;-59
2023/06/26 06:53:54;;;;;;;22.20;10.68;;;;;;;;;;10305479;28;20076;-55
2023/06/26 06:58:52;;;;;;;22.75;10.70;;;;;;;;;;10308704;28;20072;-59
2023/06/26 07:03:50;;;;;;;25.23;9.45;;;;;;;;;;10306380;28;20080;-59
2023/06/26 07:08:49;;;;;;;31.25;10.32;;;;;;;;;;10308615;28;20075;-59
2023/06/26 07:13:49;;;;;;;19.27;8.88;;;;;;;;;;10316936;28;20068;-59
2023/06/26 07:18:49;;;;;;;19.67;9.05;;;;;;;;;;10313913;28;20075;-60
2023/06/26 07:23:47;;;;;;;22.60;9.93;;;;;;;;;;10314620;28;20087;-60
2023/06/26 07:28:45;;;;;;;21.30;9.95;;;;;;;;;;10313277;28;20071;-59
2023/06/26 07:33:45;;;;;;;25.13;9.27;;;;;;;;;;10318266;28;20599;-59
2023/06/26 07:38:43;;;;;;;16.27;8.20;;;;;;;;;;10317122;28;20079;-59
2023/06/26 07:43:41;;;;;;;9.65;6.70;;;;;;;;;;10314294;28;20072;-60
2023/06/26 07:48:39;;;;;;;11.10;6.53;;;;;;;;;;10314957;28;20076;-60
2023/06/26 07:53:39;;;;;;;8.65;5.93;;;;;;;;;;10315200;28;20060;-61
2023/06/26 07:58:37;;;;;;;13.52;6.65;;;;;;;;;;10306937;28;20052;-59
2023/06/26 08:03:36;;;;;;;16.75;7.38;;;;;;;;;;10306538;28;20095;-60
2023/06/26 08:08:35;;;;;;;11.13;6.05;;;;;;;;;;10315920;28;20079;-60
2023/06/26 08:13:34;;;;;;;9.63;5.53;;;;;;;;;;10312100;28;20075;-60
2023/06/26 08:18:33;;;;;;;13.57;6.00;;;;;;;;;;10312777;28;20076;-60
2023/06/26 08:23:31;;;;;;;9.98;6.10;;;;;;;;;;10313784;28;20175;-60
2023/06/26 08:28:29;;;;;;;13.05;7.85;;;;;;;;;;10314373;28;20075;-59
2023/06/26 08:33:29;;;;;;;7.53;6.82;;;;;;;;;;10315804;28;20080;-60
2023/06/26 08:38:27;;;;;;;7.55;6.53;;;;;;;;;;10312250;28;20860;-59
2023/06/26 08:43:26;;;;;;;11.15;5.50;;;;;;;;;;10312658;28;20083;-59
2023/06/26 08:48:25;;;;;;;5.97;5.05;;;;;;;;;;10313085;28;20060;-59
2023/06/26 08:53:30;;;;;;;8.00;5.00;;;;;;;;;;10314749;28;20068;-60
2023/06/26 08:58:28;;;;;;;8.63;5.28;;;;;;;;;;10313581;28;20064;-60
2023/06/26 09:03:26;;;;;;;9.57;6.57;;;;;;;;;;10313815;28;20495;-57
2023/06/26 09:08:26;;;;;;;9.75;5.53;;;;;;;;;;10309922;28;20044;-59
2023/06/26 09:13:27;;;;;;;11.73;6.60;;;;;;;;;;10313592;28;20079;-58
2023/06/26 09:18:27;;;;;;;9.18;7.80;;;;;;;;;;10308990;28;20087;-60
2023/06/26 09:23:27;;;;;;;8.80;6.38;;;;;;;;;;10311718;28;20072;-59
2023/06/26 09:28:25;;;;;;;18.95;6.00;;;;;;;;;;10309417;28;20076;-59
2023/06/26 09:33:24;;;;;;;14.15;7.07;;;;;;;;;;10312426;28;20087;-59
2023/06/26 09:38:22;;;;;;;7.65;5.15;;;;;;;;;;10314495;28;20072;-59
2023/06/26 09:43:22;;;;;;;9.95;6.55;;;;;;;;;;10309126;28;20079;-58
2023/06/26 09:48:20;;;;;;;7.10;5.85;;;;;;;;;;10307691;28;20075;-58
2023/06/26 09:53:19;;;;;;;11.45;6.15;;;;;;;;;;10309179;28;20099;-61
2023/06/26 09:58:17;;;;;;;8.95;7.07;;;;;;;;;;10312120;28;20102;-58
2023/06/26 10:03:17;;;;;;;8.60;7.18;;;;;;;;;;10307251;28;20072;-59
2023/06/26 10:08:16;;;;;;;12.90;7.18;;;;;;;;;;10309887;28;20076;-59
2023/06/26 10:13:17;;;;;;;9.70;7.53;;;;;;;;;;10314121;28;20489;-58
2023/06/26 10:18:17;;;;;;;13.13;7.25;;;;;;;;;;10310375;28;20962;-59
2023/06/26 10:23:16;;;;;;;9.02;6.32;;;;;;;;;;10311162;28;20095;-58
2023/06/26 10:28:16;;;;;;;13.02;6.90;;;;;;;;;;10307260;28;20087;-57
2023/06/26 10:33:14;;;;;;;9.88;6.53;;;;;;;;;;10307983;28;20592;-60
2023/06/26 10:38:14;;;;;;;9.88;7.35;;;;;;;;;;10311514;28;20091;-59
2023/06/26 10:43:12;;;;;;;8.25;6.65;;;;;;;;;;10310911;28;20509;-59
2023/06/26 10:48:13;;;;;;;9.30;7.28;;;;;;;;;;10316579;28;20072;-59
2023/06/26 10:53:15;;;;;;;9.15;6.32;;;;;;;;;;10314070;28;20079;-59
2023/06/26 10:58:30;;;;;;;7.07;6.35;;;;;;;;;;10317683;28;20071;-59
2023/06/26 11:03:31;;;;;;;8.50;6.93;;;;;;;;;;10313899;28;20087;-59
2023/06/26 11:08:44;;;;;;;8.57;6.13;;;;;;;;;;10317671;28;20091;-59
2023/06/26 11:13:45;;;;;;;9.25;6.72;;;;;;;;;;10314630;28;20075;-58
2023/06/26 11:18:45;;;;;;;12.30;6.72;;;;;;;;;;10315080;28;20111;-59
2023/06/26 11:23:46;;;;;;;12.85;6.75;;;;;;;;;;10312972;28;20064;-58
2023/06/26 11:28:49;;;;;;;6.40;5.78;;;;;;;;;;10316097;28;20483;-58
2023/06/26 11:33:47;;;;;;;7.10;6.40;;;;;;;;;;10313370;28;20076;-59
2023/06/26 11:38:46;;;;;;;9.45;6.90;;;;;;;;;;10318735;28;20060;-59
2023/06/26 11:43:44;;;;;;;6.55;5.75;;;;;;;;;;10316323;28;20186;-59
2023/06/26 11:48:43;;;;;;;6.43;4.68;;;;;;;;;;10313723;28;20064;-59
2023/06/26 11:53:43;;;;;;;8.20;4.55;;;;;;;;;;10309418;28;20064;-60
2023/06/26 11:58:57;;;;;;;6.78;4.65;;;;;;;;;;10314222;28;20072;-59
2023/06/26 12:04:00;;;;;;;4.68;4.20;;;;;;;;;;10314520;28;20305;-60
2023/06/26 12:09:00;;;;;;;5.97;4.30;;;;;;;;;;10311058;28;20073;-60
2023/06/26 12:13:58;;;;;;;7.53;3.92;;;;;;;;;;10313623;28;20513;-60
2023/06/26 12:19:00;;;;;;;7.75;4.22;;;;;;;;;;10315350;28;20469;-58
2023/06/26 12:24:02;;;;;;;5.80;3.33;;;;;;;;;;10310760;28;20090;-60
2023/06/26 12:29:02;;;;;;;5.72;3.65;;;;;;;;;;10313437;28;20072;-60
2023/06/26 12:34:02;;;;;;;6.43;4.43;;;;;;;;;;10316681;28;20075;-60
2023/06/26 12:39:01;;;;;;;4.50;3.92;;;;;;;;;;10312425;28;20079;-60
2023/06/26 12:43:59;;;;;;;5.38;3.63;;;;;;;;;;10312513;28;20079;-60
2023/06/26 12:48:58;;;;;;;5.72;3.95;;;;;;;;;;10314746;28;20529;-60
2023/06/26 12:53:58;;;;;;;6.82;3.42;;;;;;;;;;10307344;28;20067;-60
2023/06/26 12:58:56;;;;;;;4.15;3.25;;;;;;;;;;10304305;28;20075;-59
2023/06/26 13:03:54;;;;;;;3.80;2.85;;;;;;;;;;10310957;28;20111;-59
2023/06/26 13:08:53;;;;;;;4.88;3.38;;;;;;;;;;10311134;28;20060;-60
2023/06/26 13:13:52;;;;;;;5.47;3.40;;;;;;;;;;10309194;28;20067;-59
2023/06/26 13:19:07;;;;;;;4.15;3.28;;;;;;;;;;10310119;28;20076;-60
2023/06/26 13:24:06;;;;;;;4.70;2.88;;;;;;;;;;10310304;28;20106;-59
2023/06/26 13:29:06;;;;;;;4.65;3.33;;;;;;;;;;10312777;28;20068;-59
2023/06/26 13:34:05;;;;;;;5.97;3.95;;;;;;;;;;10312196;28;20522;-60
2023/06/26 13:39:03;;;;;;;4.60;3.92;;;;;;;;;;10312162;28;20076;-60
2023/06/26 13:44:02;;;;;;;4.43;3.35;;;;;;;;;;10295804;28;20119;-59
2023/06/26 13:49:13;;;;;;;5.93;5.13;;;;;;;;;;10299765;28;20056;-58
2023/06/26 13:54:12;;;;;;;7.13;4.20;;;;;;;;;;10304776;28;20527;-60
2023/06/26 13:59:11;;;;;;;5.93;4.00;;;;;;;;;;10312093;28;20127;-60
2023/06/26 14:04:09;;;;;;;4.50;3.35;;;;;;;;;;10304590;28;20091;-60
2023/06/26 14:09:09;;;;;;;7.88;3.55;;;;;;;;;;10311302;28;20462;-60
2023/06/26 14:14:07;;;;;;;3.60;2.83;;;;;;;;;;10295526;28;20076;-59
2023/06/26 14:19:05;;;;;;;6.45;4.32;;;;;;;;;;10302210;28;20073;-58
2023/06/26 14:24:04;;;;;;;5.40;4.35;;;;;;;;;;10302442;28;20064;-59
2023/06/26 14:29:03;;;;;;;3.35;3.08;;;;;;;;;;10293511;28;20064;-59
2023/06/26 14:34:02;;;;;;;6.18;3.20;;;;;;;;;;10294489;28;20065;-60
2023/06/26 14:39:01;;;;;;;6.70;3.20;;;;;;;;;;10300590;28;20069;-59
2023/06/26 14:44:00;;;;;;;9.38;4.05;;;;;;;;;;10290893;28;20103;-60
2023/06/26 14:49:00;;;;;;;6.47;3.67;;;;;;;;;;10290344;28;20080;-60
2023/06/26 14:53:58;;;;;;;5.60;4.75;;;;;;;;;;10304321;28;20072;-60
2023/06/26 14:58:57;;;;;;;3.83;3.17;;;;;;;;;;10296404;28;20077;-57
2023/06/26 15:03:55;;;;;;;7.13;4.70;;;;;;;;;;10288683;28;20140;-56
2023/06/26 15:08:55;;;;;;;6.13;5.05;;;;;;;;;;10292730;28;20068;-60
2023/06/26 15:13:54;;;;;;;3.53;2.75;;;;;;;;;;10302079;28;20071;-59
2023/06/26 15:18:52;;;;;;;4.50;2.97;;;;;;;;;;10297201;28;20056;-60
2023/06/26 15:23:51;;;;;;;3.97;3.00;;;;;;;;;;10295033;28;20072;-60
2023/06/26 15:28:50;;;;;;;15.48;11.20;;;;;;;;;;10290267;28;20551;-59
2023/06/26 15:33:48;;;;;;;4.50;3.55;;;;;;;;;;10313483;28;20106;-60
2023/06/26 15:38:46;;;;;;;5.47;4.90;;;;;;;;;;10307353;28;20076;-60
2023/06/26 15:43:45;;;;;;;5.55;4.40;;;;;;;;;;10315681;28;20068;-60
2023/06/26 15:48:44;;;;;;;12.85;5.13;;;;;;;;;;10312086;28;20079;-60
2023/06/26 15:53:43;;;;;;;7.25;5.05;;;;;;;;;;10306541;28;20069;-58
2023/06/26 15:58:44;;;;;;;7.78;5.13;;;;;;;;;;10311944;28;20494;-59
2023/06/26 16:03:42;;;;;;;7.90;5.78;;;;;;;;;;10292590;28;20151;-60
2023/06/26 16:08:44;;;;;;;9.75;6.75;;;;;;;;;;10309896;28;20075;-59
2023/06/26 16:13:42;;;;;;;9.88;6.72;;;;;;;;;;10310918;28;20072;-58
2023/06/26 16:18:42;;;;;;;9.07;6.32;;;;;;;;;;10305545;28;20505;-59
2023/06/26 16:23:42;;;;;;;5.53;4.53;;;;;;;;;;10308493;28;20533;-59
2023/06/26 16:28:40;;;;;;;6.10;4.13;;;;;;;;;;10309925;28;20072;-58
2023/06/26 16:33:38;;;;;;;5.15;3.75;;;;;;;;;;10313836;28;20087;-58
2023/06/26 16:38:38;;;;;;;5.22;3.58;;;;;;;;;;10316090;28;20518;-59
2023/06/26 16:43:37;;;;;;;6.85;3.95;;;;;;;;;;10313841;28;20083;-59
2023/06/26 16:48:35;;;;;;;8.32;5.05;;;;;;;;;;10314821;28;20076;-59
2023/06/26 16:53:34;;;;;;;5.97;3.50;;;;;;;;;;10314132;28;20071;-59
2023/06/26 16:58:32;;;;;;;6.10;3.28;;;;;;;;;;10315713;28;20071;-59
2023/06/26 17:03:32;;;;;;;5.75;3.20;;;;;;;;;;10310346;28;20085;-59
2023/06/26 17:08:30;;;;;;;5.30;3.13;;;;;;;;;;10308687;28;20071;-58
2023/06/26 17:13:28;;;;;;;4.15;2.80;;;;;;;;;;10311507;28;20103;-58
2023/06/26 17:18:27;;;;;;;4.20;3.53;;;;;;;;;;10309410;28;20064;-59
2023/06/26 17:23:26;;;;;;;4.10;3.25;;;;;;;;;;10309240;28;20072;-59
2023/06/26 17:28:25;;;;;;;4.68;3.78;;;;;;;;;;10301846;28;20076;-58
2023/06/26 17:33:23;;;;;;;3.45;3.10;;;;;;;;;;10312652;28;20114;-59
2023/06/26 17:38:21;;;;;;;6.35;3.50;;;;;;;;;;10305067;28;20068;-59
2023/06/26 17:43:21;;;;;;;4.05;2.60;;;;;;;;;;10303303;28;20072;-60
2023/06/26 17:48:21;;;;;;;5.00;3.10;;;;;;;;;;10307556;28;20080;-59
2023/06/26 17:53:19;;;;;;;4.15;3.75;;;;;;;;;;10306332;28;20090;-62
2023/06/26 17:58:17;;;;;;;4.47;4.05;;;;;;;;;;10300496;28;20087;-60
2023/06/26 18:03:17;;;;;;;4.35;3.20;;;;;;;;;;10312179;28;20079;-59
2023/06/26 18:08:15;;;;;;;3.22;2.97;;;;;;;;;;10307410;28;20079;-59
2023/06/26 18:13:13;;;;;;;5.00;3.35;;;;;;;;;;10310347;28;20080;-59
2023/06/26 18:18:12;;;;;;;5.28;2.97;;;;;;;;;;10308685;28;20075;-60
2023/06/26 18:23:11;;;;;;;6.25;3.13;;;;;;;;;;10299296;28;20086;-60
2023/06/26 18:28:10;;;;;;;4.43;3.25;;;;;;;;;;10302704;28;20095;-58
2023/06/26 18:33:09;;;;;;;4.20;3.78;;;;;;;;;;10300895;28;20067;-59
2023/06/26 18:38:11;;;;;;;5.07;4.30;;;;;;;;;;10293428;28;20475;-59
2023/06/26 18:43:10;;;;;;;11.63;4.13;;;;;;;;;;10304375;28;20081;-58
2023/06/26 18:48:08;;;;;;;4.25;3.55;;;;;;;;;;10310414;28;20075;-60
2023/06/26 18:53:07;;;;;;;4.18;3.78;;;;;;;;;;10309758;28;20079;-59
2023/06/26 18:58:05;;;;;;;4.50;3.60;;;;;;;;;;10315221;28;20106;-59
2023/06/26 19:03:04;;;;;;;3.72;3.33;;;;;;;;;;10306168;28;20076;-61
2023/06/26 19:08:03;;;;;;;4.53;3.10;;;;;;;;;;10316066;28;20465;-59
2023/06/26 19:13:01;;;;;;;4.13;3.83;;;;;;;;;;10319418;28;20044;-59
2023/06/26 19:18:00;;;;;;;6.20;4.00;;;;;;;;;;10313040;28;20068;-59
2023/06/26 19:23:00;;;;;;;4.57;3.53;;;;;;;;;;10318051;28;20072;-59
2023/06/26 19:27:58;;;;;;;4.53;4.07;;;;;;;;;;10317456;28;20438;-59
2023/06/26 19:32:56;;;;;;;9.88;6.90;;;;;;;;;;10311100;28;20068;-60
2023/06/26 19:37:54;;;;;;;8.73;5.13;;;;;;;;;;10317068;28;20088;-59
2023/06/26 19:43:03;;;;;;;4.75;3.47;;;;;;;;;;10316172;28;20072;-60
2023/06/26 19:48:02;;;;;;;6.15;4.75;;;;;;;;;;10316605;28;20084;-59
2023/06/26 19:53:01;;;;;;;6.95;3.92;;;;;;;;;;10315655;28;20067;-59
2023/06/26 19:57:59;;;;;;;6.03;4.45;;;;;;;;;;10314362;28;20463;-59
2023/06/26 20:02:58;;;;;;;5.78;3.75;;;;;;;;;;10316173;28;20076;-59
2023/06/26 20:07:57;;;;;;;7.35;4.63;;;;;;;;;;10317416;28;20099;-59
2023/06/26 20:12:55;;;;;;;8.30;4.65;;;;;;;;;;10319170;28;20064;-59
2023/06/26 20:17:53;;;;;;;6.30;4.28;;;;;;;;;;10315098;28;20105;-60
2023/06/26 20:22:53;;;;;;;6.00;4.28;;;;;;;;;;10311247;28;20076;-59
2023/06/26 20:27:51;;;;;;;7.65;4.05;;;;;;;;;;10311312;28;20076;-59
2023/06/26 20:32:49;;;;;;;7.45;3.58;;;;;;;;;;10308869;28;20096;-58
2023/06/26 20:37:47;;;;;;;8.10;4.35;;;;;;;;;;10309097;28;20076;-59
2023/06/26 20:42:47;;;;;;;7.55;3.90;;;;;;;;;;10313617;28;20079;-58
2023/06/26 20:47:46;;;;;;;5.80;3.97;;;;;;;;;;10312883;28;20094;-58
2023/06/26 20:52:45;;;;;;;4.80;3.92;;;;;;;;;;10310822;28;20068;-58
2023/06/26 20:57:43;;;;;;;8.10;3.67;;;;;;;;;;10312322;28;20073;-59
2023/06/26 21:02:42;;;;;;;8.07;3.97;;;;;;;;;;10309498;28;20083;-59
2023/06/26 21:07:41;;;;;;;7.07;4.25;;;;;;;;;;10305652;28;20458;-60
2023/06/26 21:12:39;;;;;;;5.20;4.22;;;;;;;;;;10309773;28;20064;-60
2023/06/26 21:17:37;;;;;;;4.07;3.67;;;;;;;;;;10310080;28;20068;-59
2023/06/26 21:22:37;;;;;;;8.07;4.53;;;;;;;;;;10313765;28;20064;-57
2023/06/26 21:27:35;;;;;;;4.72;3.95;;;;;;;;;;10310270;28;20489;-58
2023/06/26 21:32:33;;;;;;;4.35;3.95;;;;;;;;;;10316109;28;20052;-57
2023/06/26 21:37:32;;;;;;;5.05;3.50;;;;;;;;;;10314513;28;20083;-58
2023/06/26 21:42:31;;;;;;;7.22;4.28;;;;;;;;;;10311344;28;20071;-58
2023/06/26 21:47:29;;;;;;;4.53;4.10;;;;;;;;;;10315245;28;20140;-58
2023/06/26 21:52:28;;;;;;;7.60;3.95;;;;;;;;;;10315286;28;20079;-58
2023/06/26 21:57:26;;;;;;;5.55;3.72;;;;;;;;;;10314469;28;20525;-59
2023/06/26 22:02:26;;;;;;;7.20;5.00;;;;;;;;;;10314556;28;20067;-59
2023/06/26 22:07:24;;;;;;;4.22;3.88;;;;;;;;;;10313235;28;20076;-59
2023/06/26 22:12:22;;;;;;;8.25;4.45;;;;;;;;;;10314371;28;20478;-59
2023/06/26 22:17:20;;;;;;;4.85;4.20;;;;;;;;;;10314373;28;20075;-59
2023/06/26 22:22:20;;;;;;;6.53;4.60;;;;;;;;;;10314499;28;20076;-59
2023/06/26 22:27:19;;;;;;;5.30;3.55;;;;;;;;;;10314943;28;20486;-60
2023/06/26 22:32:17;;;;;;;6.15;4.15;;;;;;;;;;10314212;28;20072;-59
2023/06/26 22:37:15;;;;;;;7.10;4.85;;;;;;;;;;10314694;28;20076;-58
2023/06/26 22:42:15;;;;;;;5.88;4.28;;;;;;;;;;10313957;28;20072;-59
2023/06/26 22:47:13;;;;;;;9.48;4.55;;;;;;;;;;10313766;28;20072;-59
2023/06/26 22:52:12;;;;;;;7.43;5.20;;;;;;;;;;10312740;28;20076;-59
2023/06/26 22:57:10;;;;;;;5.55;4.78;;;;;;;;;;10312173;28;20498;-60
2023/06/26 23:02:10;;;;;;;6.25;5.07;;;;;;;;;;10311340;28;20072;-59
2023/06/26 23:07:08;;;;;;;9.02;5.22;;;;;;;;;;10311208;28;20087;-59
2023/06/26 23:12:07;;;;;;;7.78;4.18;;;;;;;;;;10312916;28;20589;-59
2023/06/26 23:17:05;;;;;;;5.43;4.50;;;;;;;;;;10313361;28;20084;-59
2023/06/26 23:22:09;;;;;;;5.75;4.32;;;;;;;;;;10313406;28;20556;-59
2023/06/26 23:27:08;;;;;;;6.28;4.03;;;;;;;;;;10312501;28;20084;-59
2023/06/26 23:32:08;;;;;;;5.40;4.30;;;;;;;;;;10312711;28;20083;-59
2023/06/26 23:37:08;;;;;;;8.00;3.72;;;;;;;;;;10311070;28;20663;-59
2023/06/26 23:42:07;;;;;;;7.00;4.35;;;;;;;;;;10312565;28;20513;-59
2023/06/26 23:47:05;;;;;;;9.07;3.63;;;;;;;;;;10297939;28;20072;-59
2023/06/26 23:52:05;;;;;;;4.80;3.67;;;;;;;;;;10314823;28;20079;-59
2023/06/26 23:57:05;;;;;;;8.60;4.97;;;;;;;;;;10309829;28;20041;-59
